Terminal Aerodrome Forecast
Issued by NWS

Home | Current Version | Previous Version | Text Only | Print | Product List | Glossary On
Versions: 1 2 3 4 5 6 7 8 9 10 11 12 13 14 15 16 17 18 19 20 21 22 23 24 25 26 27 28 29
517
FTUS43 KICT 221801 AAA
TAFHUT
TAF AMD
KHUT 221801Z 2218/2318 14008KT P6SM VCSH SCT006 OVC010
      TEMPO 2218/2222 3SM -DZ BR OVC006
     FM230100 13011KT 3SM -DZ BR OVC006
     FM231400 15013KT 5SM -SHRA VCTS SCT006 OVC010CB=

USA.gov is the U.S. government's official web portal to all federal, state and local government web resources and services.